sensor_id;sensor_type;location;lat;lon;timestamp;pressure;altitude;pressure_sealevel;temperature;humidity
56681;BME280;42558;52.388;13.390;2023-05-01T00:01:01;101687.65;;;3.78;96.55
56681;BME280;42558;52.388;13.390;2023-05-01T00:03:32;101693.92;;;3.78;97.20
56681;BME280;42558;52.388;13.390;2023-05-01T00:06:03;101691.88;;;3.75;97.85
56681;BME280;42558;52.388;13.390;2023-05-01T00:08:36;101695.69;;;3.75;98.39
56681;BME280;42558;52.388;13.390;2023-05-01T00:11:06;101695.74;;;3.70;98.49
56681;BME280;42558;52.388;13.390;2023-05-01T00:13:40;101695.08;;;3.65;98.77
56681;BME280;42558;52.388;13.390;2023-05-01T00:16:11;101693.67;;;3.61;98.77
56681;BME280;42558;52.388;13.390;2023-05-01T00:18:41;101696.70;;;3.60;99.00
56681;BME280;42558;52.388;13.390;2023-05-01T00:21:12;101699.58;;;3.58;99.14
56681;BME280;42558;52.388;13.390;2023-05-01T00:23:40;101690.86;;;3.54;99.42
56681;BME280;42558;52.388;13.390;2023-05-01T00:26:09;101689.80;;;3.51;99.56
56681;BME280;42558;52.388;13.390;2023-05-01T00:28:37;101695.31;;;3.47;99.74
56681;BME280;42558;52.388;13.390;2023-05-01T00:31:06;101693.14;;;3.42;99.99
56681;BME280;42558;52.388;13.390;2023-05-01T00:33:34;101689.70;;;3.40;99.98
56681;BME280;42558;52.388;13.390;2023-05-01T00:36:03;101688.96;;;3.36;100.00
56681;BME280;42558;52.388;13.390;2023-05-01T00:38:31;101689.45;;;3.36;100.00
56681;BME280;42558;52.388;13.390;2023-05-01T00:41:00;101688.33;;;3.34;100.00
56681;BME280;42558;52.388;13.390;2023-05-01T00:43:28;101684.70;;;3.32;100.00
56681;BME280;42558;52.388;13.390;2023-05-01T00:45:57;101684.04;;;3.29;100.00
56681;BME280;42558;52.388;13.390;2023-05-01T00:48:25;101682.46;;;3.29;100.00
56681;BME280;42558;52.388;13.390;2023-05-01T00:50:55;101679.27;;;3.25;100.00
56681;BME280;42558;52.388;13.390;2023-05-01T00:53:26;101679.34;;;3.20;100.00
56681;BME280;42558;52.388;13.390;2023-05-01T00:55:58;101677.93;;;3.17;100.00
56681;BME280;42558;52.388;13.390;2023-05-01T00:58:28;101675.02;;;3.18;100.00
56681;BME280;42558;52.388;13.390;2023-05-01T01:00:58;101670.37;;;3.13;100.00
56681;BME280;42558;52.388;13.390;2023-05-01T01:03:28;101670.86;;;3.09;100.00
56681;BME280;42558;52.388;13.390;2023-05-01T01:12:32;101673.84;;;3.07;100.00
56681;BME280;42558;52.388;13.390;2023-05-01T01:15:25;101671.70;;;3.05;100.00
56681;BME280;42558;52.388;13.390;2023-05-01T01:18:12;101666.26;;;3.02;100.00
56681;BME280;42558;52.388;13.390;2023-05-01T01:21:10;101662.13;;;3.02;100.00
56681;BME280;42558;52.388;13.390;2023-05-01T01:33:09;101658.23;;;3.01;100.00
56681;BME280;42558;52.388;13.390;2023-05-01T01:35:47;101653.79;;;3.08;100.00
56681;BME280;42558;52.388;13.390;2023-05-01T01:38:27;101651.02;;;3.06;100.00
56681;BME280;42558;52.388;13.390;2023-05-01T01:41:10;101648.05;;;3.02;100.00
56681;BME280;42558;52.388;13.390;2023-05-01T01:43:46;101645.98;;;3.02;100.00
56681;BME280;42558;52.388;13.390;2023-05-01T01:46:21;101643.80;;;3.07;100.00
56681;BME280;42558;52.388;13.390;2023-05-01T01:48:55;101642.66;;;3.05;100.00
56681;BME280;42558;52.388;13.390;2023-05-01T01:51:27;101641.61;;;3.23;100.00
56681;BME280;42558;52.388;13.390;2023-05-01T01:54:00;101647.52;;;3.17;100.00
56681;BME280;42558;52.388;13.390;2023-05-01T01:56:33;101644.79;;;3.09;100.00
56681;BME280;42558;52.388;13.390;2023-05-01T01:59:05;101637.66;;;2.99;100.00
56681;BME280;42558;52.388;13.390;2023-05-01T02:01:39;101634.52;;;2.96;100.00
56681;BME280;42558;52.388;13.390;2023-05-01T02:04:12;101639.42;;;2.91;100.00
56681;BME280;42558;52.388;13.390;2023-05-01T02:06:45;101636.73;;;2.87;100.00
56681;BME280;42558;52.388;13.390;2023-05-01T02:09:18;101632.91;;;2.84;100.00
56681;BME280;42558;52.388;13.390;2023-05-01T02:11:52;101631.96;;;2.82;100.00
56681;BME280;42558;52.388;13.390;2023-05-01T02:14:26;101631.79;;;2.79;100.00
56681;BME280;42558;52.388;13.390;2023-05-01T02:16:57;101628.95;;;2.78;100.00
56681;BME280;42558;52.388;13.390;2023-05-01T02:19:29;101629.16;;;2.76;100.00
56681;BME280;42558;52.388;13.390;2023-05-01T02:22:03;101620.85;;;2.73;100.00
56681;BME280;42558;52.388;13.390;2023-05-01T02:24:36;101619.66;;;2.79;100.00
56681;BME280;42558;52.388;13.390;2023-05-01T02:27:16;101618.09;;;2.85;100.00
56681;BME280;42558;52.388;13.390;2023-05-01T02:29:49;101614.14;;;2.89;100.00
56681;BME280;42558;52.388;13.390;2023-05-01T02:32:19;101614.37;;;2.96;100.00
56681;BME280;42558;52.388;13.390;2023-05-01T02:34:47;101609.64;;;2.92;100.00
56681;BME280;42558;52.388;13.390;2023-05-01T02:37:16;101606.53;;;2.87;100.00
56681;BME280;42558;52.388;13.390;2023-05-01T02:39:44;101606.02;;;2.84;100.00
56681;BME280;42558;52.388;13.390;2023-05-01T02:42:16;101601.39;;;2.88;100.00
56681;BME280;42558;52.388;13.390;2023-05-01T02:44:54;101593.38;;;2.88;100.00
56681;BME280;42558;52.388;13.390;2023-05-01T02:47:27;101593.69;;;2.87;100.00
56681;BME280;42558;52.388;13.390;2023-05-01T02:49:59;101584.77;;;2.92;100.00
56681;BME280;42558;52.388;13.390;2023-05-01T02:52:30;101581.73;;;2.96;100.00
56681;BME280;42558;52.388;13.390;2023-05-01T02:55:01;101579.38;;;2.95;100.00
56681;BME280;42558;52.388;13.390;2023-05-01T02:57:32;101572.10;;;3.01;100.00
56681;BME280;42558;52.388;13.390;2023-05-01T03:00:03;101569.98;;;3.04;100.00
56681;BME280;42558;52.388;13.390;2023-05-01T03:02:33;101574.10;;;3.12;100.00
56681;BME280;42558;52.388;13.390;2023-05-01T03:05:03;101569.46;;;3.10;100.00
56681;BME280;42558;52.388;13.390;2023-05-01T03:07:33;101562.70;;;3.07;100.00
56681;BME280;42558;52.388;13.390;2023-05-01T03:10:05;101562.51;;;3.10;100.00
56681;BME280;42558;52.388;13.390;2023-05-01T03:12:35;101558.92;;;3.11;100.00
56681;BME280;42558;52.388;13.390;2023-05-01T03:15:04;101553.69;;;3.14;100.00
56681;BME280;42558;52.388;13.390;2023-05-01T03:17:32;101552.30;;;3.01;99.83
56681;BME280;42558;52.388;13.390;2023-05-01T03:20:00;101549.00;;;2.92;100.00
56681;BME280;42558;52.388;13.390;2023-05-01T03:22:29;101547.11;;;2.98;100.00
56681;BME280;42558;52.388;13.390;2023-05-01T03:25:00;101545.23;;;2.96;99.99
56681;BME280;42558;52.388;13.390;2023-05-01T03:27:29;101544.25;;;2.85;100.00
56681;BME280;42558;52.388;13.390;2023-05-01T03:29:57;101544.03;;;2.84;100.00
56681;BME280;42558;52.388;13.390;2023-05-01T03:32:26;101543.67;;;2.87;100.00
56681;BME280;42558;52.388;13.390;2023-05-01T03:34:58;101542.68;;;2.91;100.00
56681;BME280;42558;52.388;13.390;2023-05-01T03:37:28;101538.83;;;2.90;100.00
56681;BME280;42558;52.388;13.390;2023-05-01T03:39:58;101538.27;;;2.92;100.00
56681;BME280;42558;52.388;13.390;2023-05-01T03:42:28;101537.29;;;2.90;100.00
56681;BME280;42558;52.388;13.390;2023-05-01T03:44:58;101538.11;;;2.90;100.00
56681;BME280;42558;52.388;13.390;2023-05-01T03:47:28;101538.02;;;2.85;100.00
56681;BME280;42558;52.388;13.390;2023-05-01T03:49:58;101539.14;;;2.89;100.00
56681;BME280;42558;52.388;13.390;2023-05-01T03:52:28;101541.22;;;2.87;99.93
56681;BME280;42558;52.388;13.390;2023-05-01T03:54:58;101541.06;;;2.84;99.93
56681;BME280;42558;52.388;13.390;2023-05-01T03:57:28;101537.86;;;2.82;99.98
56681;BME280;42558;52.388;13.390;2023-05-01T03:59:58;101534.45;;;2.92;99.84
56681;BME280;42558;52.388;13.390;2023-05-01T04:02:28;101538.00;;;2.97;98.73
56681;BME280;42558;52.388;13.390;2023-05-01T04:04:57;101538.24;;;2.86;99.01
56681;BME280;42558;52.388;13.390;2023-05-01T04:07:28;101539.06;;;2.85;99.59
56681;BME280;42558;52.388;13.390;2023-05-01T04:09:57;101537.14;;;2.85;99.77
56681;BME280;42558;52.388;13.390;2023-05-01T04:12:27;101539.38;;;2.94;99.90
56681;BME280;42558;52.388;13.390;2023-05-01T04:14:57;101533.02;;;3.04;99.39
56681;BME280;42558;52.388;13.390;2023-05-01T04:17:27;101530.68;;;3.06;98.61
56681;BME280;42558;52.388;13.390;2023-05-01T04:19:57;101524.98;;;3.07;98.43
56681;BME280;42558;52.388;13.390;2023-05-01T04:22:27;101528.75;;;3.12;98.28
56681;BME280;42558;52.388;13.390;2023-05-01T04:24:57;101528.45;;;3.19;97.93
56681;BME280;42558;52.388;13.390;2023-05-01T04:27:27;101529.73;;;3.23;97.38
56681;BME280;42558;52.388;13.390;2023-05-01T04:29:57;101529.63;;;3.31;96.90
56681;BME280;42558;52.388;13.390;2023-05-01T04:32:27;101529.80;;;3.34;96.55
56681;BME280;42558;52.388;13.390;2023-05-01T04:34:57;101526.84;;;3.43;95.83
56681;BME280;42558;52.388;13.390;2023-05-01T04:37:28;101525.63;;;3.53;94.64
56681;BME280;42558;52.388;13.390;2023-05-01T04:39:58;101527.88;;;3.56;94.06
56681;BME280;42558;52.388;13.390;2023-05-01T04:42:32;101520.10;;;3.64;93.82
56681;BME280;42558;52.388;13.390;2023-05-01T04:45:02;101522.81;;;3.72;93.06
56681;BME280;42558;52.388;13.390;2023-05-01T04:47:33;101520.25;;;3.79;92.52
56681;BME280;42558;52.388;13.390;2023-05-01T04:50:03;101516.36;;;3.85;92.21
56681;BME280;42558;52.388;13.390;2023-05-01T04:52:33;101520.73;;;3.81;91.84
56681;BME280;42558;52.388;13.390;2023-05-01T04:55:05;101516.67;;;3.84;92.19
56681;BME280;42558;52.388;13.390;2023-05-01T04:57:35;101513.19;;;3.90;91.20
56681;BME280;42558;52.388;13.390;2023-05-01T05:00:06;101510.03;;;4.03;90.65
56681;BME280;42558;52.388;13.390;2023-05-01T05:02:37;101509.29;;;4.09;89.81
56681;BME280;42558;52.388;13.390;2023-05-01T05:05:07;101507.61;;;4.17;88.88
56681;BME280;42558;52.388;13.390;2023-05-01T05:07:37;101506.69;;;4.23;88.64
56681;BME280;42558;52.388;13.390;2023-05-01T05:10:07;101505.29;;;4.26;87.81
56681;BME280;42558;52.388;13.390;2023-05-01T05:12:37;101502.27;;;4.34;87.75
56681;BME280;42558;52.388;13.390;2023-05-01T05:15:08;101501.38;;;4.45;87.13
56681;BME280;42558;52.388;13.390;2023-05-01T05:17:38;101499.51;;;4.53;86.29
56681;BME280;42558;52.388;13.390;2023-05-01T05:20:08;101498.42;;;4.66;86.28
56681;BME280;42558;52.388;13.390;2023-05-01T05:22:38;101497.66;;;4.79;85.13
56681;BME280;42558;52.388;13.390;2023-05-01T05:25:08;101492.71;;;4.96;84.38
56681;BME280;42558;52.388;13.390;2023-05-01T05:27:38;101486.94;;;5.13;83.96
56681;BME280;42558;52.388;13.390;2023-05-01T05:30:09;101483.67;;;5.29;82.86
56681;BME280;42558;52.388;13.390;2023-05-01T05:32:39;101482.52;;;5.46;81.66
56681;BME280;42558;52.388;13.390;2023-05-01T05:35:08;101476.61;;;5.58;80.61
56681;BME280;42558;52.388;13.390;2023-05-01T05:37:37;101472.27;;;5.70;79.58
56681;BME280;42558;52.388;13.390;2023-05-01T05:40:06;101468.04;;;5.72;78.77
56681;BME280;42558;52.388;13.390;2023-05-01T05:42:37;101467.31;;;5.88;79.55
56681;BME280;42558;52.388;13.390;2023-05-01T05:45:06;101463.62;;;6.11;78.15
56681;BME280;42558;52.388;13.390;2023-05-01T05:47:33;101458.98;;;6.16;77.68
56681;BME280;42558;52.388;13.390;2023-05-01T05:50:03;101453.61;;;6.26;76.79
56681;BME280;42558;52.388;13.390;2023-05-01T05:52:30;101451.83;;;6.33;75.46
56681;BME280;42558;52.388;13.390;2023-05-01T05:54:59;101448.51;;;6.63;75.45
56681;BME280;42558;52.388;13.390;2023-05-01T05:57:27;101452.76;;;6.99;74.54
56681;BME280;42558;52.388;13.390;2023-05-01T05:59:56;101451.30;;;7.02;73.47
56681;BME280;42558;52.388;13.390;2023-05-01T06:02:24;101451.86;;;7.12;73.29
56681;BME280;42558;52.388;13.390;2023-05-01T06:04:52;101448.81;;;7.47;73.91
56681;BME280;42558;52.388;13.390;2023-05-01T06:07:21;101449.27;;;7.69;71.96
56681;BME280;42558;52.388;13.390;2023-05-01T06:09:49;101449.75;;;7.72;70.07
56681;BME280;42558;52.388;13.390;2023-05-01T06:12:18;101448.31;;;7.71;69.92
56681;BME280;42558;52.388;13.390;2023-05-01T06:14:46;101440.95;;;8.06;69.32
56681;BME280;42558;52.388;13.390;2023-05-01T06:17:15;101441.90;;;8.54;68.60
56681;BME280;42558;52.388;13.390;2023-05-01T06:19:43;101443.53;;;8.88;67.59
56681;BME280;42558;52.388;13.390;2023-05-01T06:22:11;101449.09;;;8.92;66.86
56681;BME280;42558;52.388;13.390;2023-05-01T06:24:40;101443.43;;;8.85;65.09
56681;BME280;42558;52.388;13.390;2023-05-01T06:27:08;101440.02;;;9.11;63.81
56681;BME280;42558;52.388;13.390;2023-05-01T06:29:37;101441.27;;;9.41;64.10
56681;BME280;42558;52.388;13.390;2023-05-01T06:32:05;101435.16;;;9.48;63.66
56681;BME280;42558;52.388;13.390;2023-05-01T06:34:33;101435.22;;;9.69;62.20
56681;BME280;42558;52.388;13.390;2023-05-01T06:37:02;101426.77;;;10.01;62.42
56681;BME280;42558;52.388;13.390;2023-05-01T06:39:34;101425.81;;;10.37;60.15
56681;BME280;42558;52.388;13.390;2023-05-01T06:42:05;101430.02;;;10.16;61.00
56681;BME280;42558;52.388;13.390;2023-05-01T06:44:35;101427.23;;;10.44;59.91
56681;BME280;42558;52.388;13.390;2023-05-01T06:47:05;101427.53;;;10.28;59.17
56681;BME280;42558;52.388;13.390;2023-05-01T06:49:35;101426.67;;;10.30;59.18
56681;BME280;42558;52.388;13.390;2023-05-01T06:52:05;101425.30;;;10.51;59.51
56681;BME280;42558;52.388;13.390;2023-05-01T06:54:35;101421.65;;;10.67;59.18
56681;BME280;42558;52.388;13.390;2023-05-01T06:57:05;101421.39;;;10.94;58.20
56681;BME280;42558;52.388;13.390;2023-05-01T06:59:34;101417.17;;;11.03;58.21
56681;BME280;42558;52.388;13.390;2023-05-01T07:02:04;101416.84;;;11.20;57.25
56681;BME280;42558;52.388;13.390;2023-05-01T07:04:34;101416.75;;;10.68;57.59
56681;BME280;42558;52.388;13.390;2023-05-01T07:07:04;101417.61;;;10.99;58.23
56681;BME280;42558;52.388;13.390;2023-05-01T07:09:34;101418.64;;;11.20;57.34
56681;BME280;42558;52.388;13.390;2023-05-01T07:12:05;101411.99;;;11.66;56.86
56681;BME280;42558;52.388;13.390;2023-05-01T07:14:38;101413.88;;;11.99;55.41
56681;BME280;42558;52.388;13.390;2023-05-01T07:17:08;101411.17;;;11.87;55.16
56681;BME280;42558;52.388;13.390;2023-05-01T07:19:37;101407.69;;;11.53;54.95
56681;BME280;42558;52.388;13.390;2023-05-01T07:22:07;101407.23;;;11.58;57.06
56681;BME280;42558;52.388;13.390;2023-05-01T07:24:37;101410.77;;;12.44;54.71
56681;BME280;42558;52.388;13.390;2023-05-01T07:27:06;101403.34;;;12.64;53.52
56681;BME280;42558;52.388;13.390;2023-05-01T07:29:39;101399.56;;;12.27;53.23
56681;BME280;42558;52.388;13.390;2023-05-01T07:32:07;101397.88;;;12.11;54.39
56681;BME280;42558;52.388;13.390;2023-05-01T07:34:37;101395.69;;;12.16;53.49
56681;BME280;42558;52.388;13.390;2023-05-01T07:37:07;101388.70;;;12.10;54.35
56681;BME280;42558;52.388;13.390;2023-05-01T07:39:37;101390.42;;;12.40;54.32
56681;BME280;42558;52.388;13.390;2023-05-01T07:42:08;101388.35;;;12.87;53.58
56681;BME280;42558;52.388;13.390;2023-05-01T07:44:38;101381.89;;;13.06;52.56
56681;BME280;42558;52.388;13.390;2023-05-01T07:47:06;101381.55;;;13.33;52.86
56681;BME280;42558;52.388;13.390;2023-05-01T07:49:36;101370.97;;;13.48;51.09
56681;BME280;42558;52.388;13.390;2023-05-01T07:52:06;101365.31;;;13.82;51.39
56681;BME280;42558;52.388;13.390;2023-05-01T07:54:36;101357.86;;;13.78;49.95
56681;BME280;42558;52.388;13.390;2023-05-01T07:57:06;101361.10;;;13.51;50.46
56681;BME280;42558;52.388;13.390;2023-05-01T07:59:36;101354.03;;;14.04;49.71
56681;BME280;42558;52.388;13.390;2023-05-01T08:02:06;101353.79;;;13.60;49.35
56681;BME280;42558;52.388;13.390;2023-05-01T08:04:36;101346.05;;;13.81;49.85
56681;BME280;42558;52.388;13.390;2023-05-01T08:07:06;101349.17;;;14.35;49.56
56681;BME280;42558;52.388;13.390;2023-05-01T08:09:35;101344.80;;;14.17;49.37
56681;BME280;42558;52.388;13.390;2023-05-01T08:12:07;101340.01;;;14.17;46.92
56681;BME280;42558;52.388;13.390;2023-05-01T08:14:40;101336.46;;;14.17;48.49
56681;BME280;42558;52.388;13.390;2023-05-01T08:17:07;101330.72;;;14.49;47.10
56681;BME280;42558;52.388;13.390;2023-05-01T08:19:37;101328.81;;;14.87;47.08
56681;BME280;42558;52.388;13.390;2023-05-01T08:22:07;101327.58;;;14.34;47.35
56681;BME280;42558;52.388;13.390;2023-05-01T08:24:40;101324.01;;;15.16;46.93
56681;BME280;42558;52.388;13.390;2023-05-01T08:27:10;101326.45;;;14.72;45.26
56681;BME280;42558;52.388;13.390;2023-05-01T08:29:37;101323.59;;;15.00;45.37
56681;BME280;42558;52.388;13.390;2023-05-01T08:32:07;101321.87;;;15.14;45.04
56681;BME280;42558;52.388;13.390;2023-05-01T08:34:37;101323.58;;;15.02;45.08
56681;BME280;42558;52.388;13.390;2023-05-01T08:37:07;101317.92;;;15.54;43.97
56681;BME280;42558;52.388;13.390;2023-05-01T08:39:37;101319.94;;;15.22;44.01
56681;BME280;42558;52.388;13.390;2023-05-01T08:42:08;101312.88;;;15.27;44.66
56681;BME280;42558;52.388;13.390;2023-05-01T08:44:42;101321.33;;;14.81;44.07
56681;BME280;42558;52.388;13.390;2023-05-01T08:47:17;101312.67;;;14.78;45.29
56681;BME280;42558;52.388;13.390;2023-05-01T08:49:49;101309.45;;;15.10;43.45
56681;BME280;42558;52.388;13.390;2023-05-01T08:52:21;101304.28;;;15.59;43.13
56681;BME280;42558;52.388;13.390;2023-05-01T08:54:53;101301.33;;;16.10;42.82
56681;BME280;42558;52.388;13.390;2023-05-01T08:57:26;101299.38;;;16.13;41.97
56681;BME280;42558;52.388;13.390;2023-05-01T09:00:00;101298.81;;;15.66;42.66
56681;BME280;42558;52.388;13.390;2023-05-01T09:02:33;101293.84;;;15.66;43.46
56681;BME280;42558;52.388;13.390;2023-05-01T09:05:01;101295.11;;;15.95;42.78
56681;BME280;42558;52.388;13.390;2023-05-01T09:07:32;101288.53;;;16.08;43.42
56681;BME280;42558;52.388;13.390;2023-05-01T09:10:02;101285.85;;;16.37;41.37
56681;BME280;42558;52.388;13.390;2023-05-01T09:12:33;101282.48;;;16.34;42.46
56681;BME280;42558;52.388;13.390;2023-05-01T09:15:05;101276.63;;;15.86;41.18
56681;BME280;42558;52.388;13.390;2023-05-01T09:17:36;101269.53;;;16.23;42.57
56681;BME280;42558;52.388;13.390;2023-05-01T09:20:07;101260.71;;;17.22;41.62
56681;BME280;42558;52.388;13.390;2023-05-01T09:22:37;101256.11;;;16.78;41.15
56681;BME280;42558;52.388;13.390;2023-05-01T09:25:06;101256.52;;;16.66;41.60
56681;BME280;42558;52.388;13.390;2023-05-01T09:27:36;101250.19;;;16.95;40.26
56681;BME280;42558;52.388;13.390;2023-05-01T09:30:05;101253.66;;;16.65;40.01
56681;BME280;42558;52.388;13.390;2023-05-01T09:32:36;101247.47;;;16.57;40.29
56681;BME280;42558;52.388;13.390;2023-05-01T09:35:15;101247.54;;;16.28;41.28
56681;BME280;42558;52.388;13.390;2023-05-01T09:37:48;101234.30;;;17.09;41.21
56681;BME280;42558;52.388;13.390;2023-05-01T09:40:17;101236.80;;;16.66;41.21
56681;BME280;42558;52.388;13.390;2023-05-01T09:42:51;101230.52;;;16.88;40.20
56681;BME280;42558;52.388;13.390;2023-05-01T09:45:22;101222.09;;;17.01;40.26
56681;BME280;42558;52.388;13.390;2023-05-01T09:47:51;101216.86;;;16.81;40.71
56681;BME280;42558;52.388;13.390;2023-05-01T09:50:38;101214.66;;;17.22;41.31
56681;BME280;42558;52.388;13.390;2023-05-01T09:53:09;101207.49;;;17.57;38.65
56681;BME280;42558;52.388;13.390;2023-05-01T09:55:38;101202.99;;;17.17;39.23
56681;BME280;42558;52.388;13.390;2023-05-01T09:58:06;101202.23;;;17.49;39.33
56681;BME280;42558;52.388;13.390;2023-05-01T10:00:47;101199.73;;;17.52;39.36
56681;BME280;42558;52.388;13.390;2023-05-01T10:03:17;101196.31;;;17.56;38.80
56681;BME280;42558;52.388;13.390;2023-05-01T10:05:47;101198.09;;;17.98;39.73
56681;BME280;42558;52.388;13.390;2023-05-01T10:08:17;101196.29;;;17.57;37.87
56681;BME280;42558;52.388;13.390;2023-05-01T10:11:03;101190.29;;;17.02;39.55
56681;BME280;42558;52.388;13.390;2023-05-01T10:13:34;101184.30;;;17.71;38.50
56681;BME280;42558;52.388;13.390;2023-05-01T10:16:04;101180.40;;;17.89;39.34
56681;BME280;42558;52.388;13.390;2023-05-01T10:18:36;101180.64;;;17.13;39.53
56681;BME280;42558;52.388;13.390;2023-05-01T10:21:07;101182.38;;;16.88;40.21
56681;BME280;42558;52.388;13.390;2023-05-01T10:23:39;101174.64;;;17.92;39.18
56681;BME280;42558;52.388;13.390;2023-05-01T10:26:12;101174.58;;;18.16;38.59
56681;BME280;42558;52.388;13.390;2023-05-01T10:28:46;101165.95;;;18.25;38.19
56681;BME280;42558;52.388;13.390;2023-05-01T10:31:17;101163.31;;;18.21;38.60
56681;BME280;42558;52.388;13.390;2023-05-01T10:33:47;101154.91;;;17.91;38.42
56681;BME280;42558;52.388;13.390;2023-05-01T10:36:24;101151.52;;;17.54;38.53
56681;BME280;42558;52.388;13.390;2023-05-01T10:38:55;101146.84;;;17.62;38.31
56681;BME280;42558;52.388;13.390;2023-05-01T10:42:03;101146.27;;;18.03;38.14
56681;BME280;42558;52.388;13.390;2023-05-01T10:44:35;101140.41;;;18.17;37.86
56681;BME280;42558;52.388;13.390;2023-05-01T10:50:06;101130.48;;;18.41;39.04
56681;BME280;42558;52.388;13.390;2023-05-01T10:55:45;101120.31;;;19.41;35.76
56681;BME280;42558;52.388;13.390;2023-05-01T11:01:27;101118.52;;;18.98;36.51
56681;BME280;42558;52.388;13.390;2023-05-01T11:04:04;101116.17;;;18.75;37.22
56681;BME280;42558;52.388;13.390;2023-05-01T11:06:36;101114.89;;;18.08;37.23
56681;BME280;42558;52.388;13.390;2023-05-01T11:09:53;101106.16;;;18.10;38.23
56681;BME280;42558;52.388;13.390;2023-05-01T11:15:33;101093.84;;;18.92;36.35
56681;BME280;42558;52.388;13.390;2023-05-01T11:18:02;101090.61;;;18.14;38.02
56681;BME280;42558;52.388;13.390;2023-05-01T11:23:04;101081.19;;;19.14;36.32
56681;BME280;42558;52.388;13.390;2023-05-01T11:25:34;101069.52;;;19.39;35.62
56681;BME280;42558;52.388;13.390;2023-05-01T11:28:04;101067.48;;;19.44;35.49
56681;BME280;42558;52.388;13.390;2023-05-01T11:30:37;101061.86;;;19.08;35.44
56681;BME280;42558;52.388;13.390;2023-05-01T11:33:07;101057.89;;;18.66;36.61
56681;BME280;42558;52.388;13.390;2023-05-01T11:35:37;101051.10;;;18.90;37.05
56681;BME280;42558;52.388;13.390;2023-05-01T11:38:16;101040.00;;;19.74;36.11
56681;BME280;42558;52.388;13.390;2023-05-01T11:40:56;101036.03;;;19.38;35.89
56681;BME280;42558;52.388;13.390;2023-05-01T11:43:26;101034.83;;;19.15;36.33
56681;BME280;42558;52.388;13.390;2023-05-01T11:45:54;101040.05;;;19.22;36.77
56681;BME280;42558;52.388;13.390;2023-05-01T11:48:29;101044.48;;;19.13;35.50
56681;BME280;42558;52.388;13.390;2023-05-01T11:50:57;101041.70;;;18.77;36.08
56681;BME280;42558;52.388;13.390;2023-05-01T11:53:26;101032.70;;;18.83;36.18
56681;BME280;42558;52.388;13.390;2023-05-01T11:55:54;101024.92;;;19.01;35.30
56681;BME280;42558;52.388;13.390;2023-05-01T11:58:31;101026.87;;;18.79;36.05
56681;BME280;42558;52.388;13.390;2023-05-01T12:01:00;101026.79;;;18.48;36.11
56681;BME280;42558;52.388;13.390;2023-05-01T12:03:40;101020.49;;;18.15;36.53
56681;BME280;42558;52.388;13.390;2023-05-01T12:06:11;101018.71;;;18.29;36.31
56681;BME280;42558;52.388;13.390;2023-05-01T12:08:50;101017.80;;;18.54;36.89
56681;BME280;42558;52.388;13.390;2023-05-01T12:11:20;101015.48;;;18.78;36.61
56681;BME280;42558;52.388;13.390;2023-05-01T12:13:50;101015.37;;;18.62;35.82
56681;BME280;42558;52.388;13.390;2023-05-01T12:16:18;101008.46;;;18.94;36.11
56681;BME280;42558;52.388;13.390;2023-05-01T12:18:46;101002.38;;;18.73;37.10
56681;BME280;42558;52.388;13.390;2023-05-01T12:21:16;100997.91;;;18.61;36.91
56681;BME280;42558;52.388;13.390;2023-05-01T12:23:46;100994.84;;;18.41;36.72
56681;BME280;42558;52.388;13.390;2023-05-01T12:26:18;100991.58;;;18.57;36.45
56681;BME280;42558;52.388;13.390;2023-05-01T12:29:03;100993.17;;;18.45;37.13
56681;BME280;42558;52.388;13.390;2023-05-01T12:31:34;100992.24;;;18.60;36.01
56681;BME280;42558;52.388;13.390;2023-05-01T12:34:06;100992.69;;;18.66;35.60
56681;BME280;42558;52.388;13.390;2023-05-01T12:36:36;100987.50;;;18.67;36.88
56681;BME280;42558;52.388;13.390;2023-05-01T12:39:09;100986.87;;;18.51;37.48
56681;BME280;42558;52.388;13.390;2023-05-01T12:41:47;100981.45;;;19.00;36.27
56681;BME280;42558;52.388;13.390;2023-05-01T12:44:23;100973.96;;;19.01;36.59
56681;BME280;42558;52.388;13.390;2023-05-01T12:47:07;100967.95;;;18.65;36.45
56681;BME280;42558;52.388;13.390;2023-05-01T12:49:36;100962.84;;;18.83;36.05
56681;BME280;42558;52.388;13.390;2023-05-01T12:52:07;100959.20;;;18.66;36.16
56681;BME280;42558;52.388;13.390;2023-05-01T12:54:41;100963.59;;;18.71;36.90
56681;BME280;42558;52.388;13.390;2023-05-01T12:57:14;100960.23;;;18.90;36.81
56681;BME280;42558;52.388;13.390;2023-05-01T12:59:45;100955.52;;;18.96;37.11
56681;BME280;42558;52.388;13.390;2023-05-01T13:02:16;100956.33;;;19.00;37.37
56681;BME280;42558;52.388;13.390;2023-05-01T13:04:46;100953.69;;;19.08;36.33
56681;BME280;42558;52.388;13.390;2023-05-01T13:07:18;100949.79;;;18.87;36.11
56681;BME280;42558;52.388;13.390;2023-05-01T13:09:53;100944.48;;;18.85;36.45
56681;BME280;42558;52.388;13.390;2023-05-01T13:12:23;100942.69;;;19.24;37.43
56681;BME280;42558;52.388;13.390;2023-05-01T13:14:55;100942.20;;;19.59;36.22
56681;BME280;42558;52.388;13.390;2023-05-01T13:17:31;100940.30;;;19.82;36.18
56681;BME280;42558;52.388;13.390;2023-05-01T13:20:03;100945.67;;;19.35;35.52
56681;BME280;42558;52.388;13.390;2023-05-01T13:22:35;100944.81;;;18.87;36.97
56681;BME280;42558;52.388;13.390;2023-05-01T13:25:17;100942.14;;;19.06;35.70
56681;BME280;42558;52.388;13.390;2023-05-01T13:27:51;100934.66;;;18.76;35.69
56681;BME280;42558;52.388;13.390;2023-05-01T13:30:31;100927.57;;;19.12;34.97
56681;BME280;42558;52.388;13.390;2023-05-01T13:33:02;100928.74;;;18.87;34.22
56681;BME280;42558;52.388;13.390;2023-05-01T13:35:34;100923.33;;;19.20;35.37